Time;durP1;ratioP1;P1;durP2;ratioP2;P2;SDS_P1;SDS_P2;PMS_P1;PMS_P2;Temp;Humidity;BMP_temperature;BMP_pressure;BME280_temperature;BME280_humidity;BME280_pressure;Samples;Min_cycle;Max_cycle;Signal;HPM_P1;HPM_P2
2023/02/06 00:04:37;;;;;;;186.60;117.00;;;;;;;-2.38;68.91;102750.90;111839;1250;23118;-80
2023/02/06 00:07:52;;;;;;;186.70;118.90;;;;;;;-2.43;68.93;102758.52;111793;1250;22721;-80
2023/02/06 00:11:10;;;;;;;194.30;119.70;;;;;;;-2.41;68.94;102760.30;111724;1250;22773;-82
2023/02/06 00:14:11;;;;;;;182.20;114.90;;;;;;;-2.35;69.23;102763.14;111569;1250;21964;-84
2023/02/06 00:17:06;;;;;;;175.90;116.40;;;;;;;-2.28;69.34;102758.09;112073;1243;21979;-82
2023/02/06 00:19:56;;;;;;;168.70;112.50;;;;;;;-2.18;69.37;102756.23;112326;1244;21981;-80
2023/02/06 00:23:29;;;;;;;157.80;99.70;;;;;;;-2.07;69.41;102752.55;112529;1244;22048;-79
2023/02/06 00:26:28;;;;;;;139.00;92.20;;;;;;;-1.99;69.30;102748.37;112297;1244;21979;-79
2023/02/06 00:29:29;;;;;;;134.40;86.40;;;;;;;-1.94;69.19;102743.30;111913;1247;21951;-80
2023/02/06 00:32:32;;;;;;;;;;;;;;;;;;;;;
2023/02/06 00:35:41;;;;;;;137.20;87.80;;;;;;;-1.95;68.86;102738.98;111287;1252;22528;-81
2023/02/06 00:39:05;;;;;;;130.50;85.00;;;;;;;-1.93;68.95;102740.79;111351;1255;22930;-80
2023/02/06 00:41:54;;;;;;;145.60;90.60;;;;;;;-1.98;68.76;102741.05;110821;1260;21995;-80
2023/02/06 00:44:56;;;;;;;132.50;91.80;;;;;;;-1.97;68.74;102735.30;110710;1260;22042;-81
2023/02/06 00:48:02;;;;;;;127.80;85.70;;;;;;;-1.92;68.92;102728.76;110046;1266;22240;-82
2023/02/06 00:52:04;;;;;;;140.50;87.90;;;;;;;-1.93;68.76;102729.17;110447;1266;22734;-80
2023/02/06 00:55:15;;;;;;;144.70;90.30;;;;;;;-1.89;68.81;102737.45;110870;1262;23001;-82
2023/02/06 00:58:12;;;;;;;153.90;94.70;;;;;;;-1.80;68.76;102737.02;110209;1266;21993;-80
2023/02/06 01:04:34;;;;;;;138.20;89.40;;;;;;;-1.81;68.29;102714.48;110444;1263;22448;-80
2023/02/06 01:08:04;;;;;;;131.50;87.80;;;;;;;-1.92;68.03;102701.80;109801;1269;23656;-80
2023/02/06 01:11:37;;;;;;;135.60;91.20;;;;;;;-2.07;68.04;102703.59;109791;1269;22058;-82
2023/02/06 01:14:55;;;;;;;138.70;90.80;;;;;;;-2.11;68.37;102700.45;109994;1265;22000;-81
2023/02/06 01:18:09;;;;;;;129.00;86.70;;;;;;;-2.12;68.22;102697.83;110582;1258;22845;-81
2023/02/06 01:21:24;;;;;;;141.80;91.10;;;;;;;-2.19;68.18;102695.60;110653;1260;21980;-80
2023/02/06 01:24:11;;;;;;;136.30;89.70;;;;;;;-2.19;68.42;102692.54;110470;1260;21969;-82
2023/02/06 01:27:07;;;;;;;123.10;84.00;;;;;;;-2.21;68.43;102696.69;111509;1250;23050;-81
2023/02/06 01:30:13;;;;;;;130.20;87.40;;;;;;;-2.21;68.48;102697.56;111377;1250;21953;-82
2023/02/06 01:33:00;;;;;;;135.30;88.00;;;;;;;-2.15;68.71;102695.98;111364;1250;21960;-80
2023/02/06 01:36:10;;;;;;;125.70;85.30;;;;;;;-2.10;68.74;102700.15;111431;1250;21966;-81
2023/02/06 01:38:53;;;;;;;122.40;79.70;;;;;;;-2.07;68.51;102701.35;111266;1249;21955;-77
2023/02/06 01:41:30;;;;;;;122.10;79.30;;;;;;;-2.10;68.24;102702.55;111701;1249;21952;-80
2023/02/06 01:44:41;;;;;;;;;;;;;;;;;;;;;
2023/02/06 01:47:50;;;;;;;117.10;78.80;;;;;;;-2.12;68.40;102698.70;111410;1249;24352;-80
2023/02/06 01:50:56;;;;;;;125.80;82.00;;;;;;;-2.12;68.48;102711.01;111423;1240;21971;-80
2023/02/06 01:53:48;;;;;;;129.10;79.90;;;;;;;-2.09;68.69;102713.37;111093;1253;22753;-79
2023/02/06 01:57:14;;;;;;;112.50;74.10;;;;;;;-2.06;68.57;102727.84;111367;1249;21966;-80
2023/02/06 02:00:30;;;;;;;122.60;77.80;;;;;;;-2.04;68.60;102732.06;111492;1249;21970;-83
2023/02/06 02:03:11;;;;;;;126.00;82.00;;;;;;;-1.99;68.70;102736.06;111419;1249;21978;-82
2023/02/06 02:06:30;;;;;;;124.30;78.90;;;;;;;-1.95;68.41;102736.41;111688;1249;22988;-81
2023/02/06 02:09:34;;;;;;;122.10;80.60;;;;;;;-1.93;68.37;102737.92;111878;1248;22113;-80
2023/02/06 02:12:42;;;;;;;;;;;;;;;;;;;;;
2023/02/06 02:15:53;;;;;;;123.20;76.30;;;;;;;-1.95;68.44;102739.36;112381;1242;23793;-81
2023/02/06 02:19:25;;;;;;;116.30;78.70;;;;;;;-1.97;68.28;102732.27;112297;1244;21953;-82
2023/02/06 02:23:36;;;;;;;118.40;74.60;;;;;;;-1.92;68.42;102734.36;112352;1244;21957;-81
2023/02/06 02:26:45;;;;;;;121.90;75.00;;;;;;;-1.85;68.38;102725.17;111694;1249;22067;-81
2023/02/06 02:30:17;;;;;;;;;;;;;;;;;;;;;
2023/02/06 02:33:24;;;;;;;98.90;68.80;;;;;;;-1.75;68.34;102705.86;111300;1254;21965;-80
2023/02/06 02:37:02;;;;;;;104.90;67.50;;;;;;;-1.74;68.03;102705.27;110948;1256;23691;-80
2023/02/06 02:43:56;;;;;;;107.40;68.50;;;;;;;-1.97;67.72;102706.27;111028;1256;22003;-80
2023/02/06 02:46:57;;;;;;;100.80;66.50;;;;;;;-1.99;67.73;102701.95;110642;1261;22969;-80
2023/02/06 02:49:55;;;;;;;94.60;63.90;;;;;;;-2.02;67.72;102695.30;110165;1265;23623;-81
2023/02/06 02:53:09;;;;;;;;;;;;;;;;;;;;;
2023/02/06 02:56:40;;;;;;;;;;;;;;;;;;;;;
2023/02/06 02:59:41;;;;;;;101.60;67.20;;;;;;;-2.02;67.52;102700.06;111033;1257;23714;-81
2023/02/06 03:03:15;;;;;;;101.30;68.20;;;;;;;-2.05;67.36;102696.52;110651;1258;22994;-81
2023/02/06 03:07:04;;;;;;;103.60;69.70;;;;;;;-2.05;67.35;102692.05;111386;1253;21983;-81
2023/02/06 03:10:54;;;;;;;107.10;68.20;;;;;;;-2.10;67.20;102684.82;111974;1244;22045;-80
2023/02/06 03:14:37;;;;;;;104.90;68.80;;;;;;;-2.12;67.30;102683.85;111068;1256;23592;-80
2023/02/06 03:18:02;;;;;;;;;;;;;;;;;;;;;
2023/02/06 03:21:12;;;;;;;119.00;75.50;;;;;;;-2.10;67.25;102676.14;110141;1265;21973;-82
2023/02/06 03:24:50;;;;;;;108.20;73.30;;;;;;;-2.10;67.24;102671.83;109915;1265;23174;-82
2023/02/06 03:28:29;;;;;;;;;;;;;;;;;;;;;
2023/02/06 03:31:56;;;;;;;107.90;75.60;;;;;;;-1.99;66.92;102670.38;110499;1257;21945;-81
2023/02/06 03:35:13;;;;;;;107.90;73.70;;;;;;;-1.99;67.03;102664.22;109946;1267;22461;-82
2023/02/06 03:38:39;;;;;;;103.90;72.90;;;;;;;-1.96;67.22;102662.50;109822;1267;21998;-81
2023/02/06 03:41:48;;;;;;;107.60;71.20;;;;;;;-1.92;67.17;102660.65;106407;1264;4453081;-82
2023/02/06 03:45:52;;;;;;;109.50;72.50;;;;;;;-1.90;67.09;102669.80;109762;1266;21980;-82
2023/02/06 03:48:56;;;;;;;109.20;73.40;;;;;;;-1.85;67.05;102668.66;109700;1270;22761;-81
2023/02/06 03:52:31;;;;;;;106.00;74.30;;;;;;;-1.87;66.76;102662.25;109573;1266;22015;-80
2023/02/06 03:55:34;;;;;;;117.40;77.00;;;;;;;-1.90;66.81;102660.92;110593;1254;21978;-81
2023/02/06 03:58:32;;;;;;;105.70;71.70;;;;;;;-1.90;66.79;102659.55;110663;1261;22741;-79
2023/02/06 04:01:52;;;;;;;105.10;72.60;;;;;;;-1.87;66.84;102659.17;110595;1261;23023;-81
2023/02/06 04:05:05;;;;;;;107.70;73.60;;;;;;;-1.85;66.85;102660.98;110657;1261;23695;-82
2023/02/06 04:08:56;;;;;;;108.80;71.00;;;;;;;-1.84;66.83;102657.83;110548;1257;23071;-84
2023/02/06 04:12:12;;;;;;;108.20;73.60;;;;;;;-1.82;66.75;102659.45;110240;1265;23062;-82
2023/02/06 04:15:05;;;;;;;112.50;76.20;;;;;;;-1.83;66.48;102658.70;110253;1265;23889;-81
2023/02/06 04:18:17;;;;;;;;;;;;;;;;;;;;;
2023/02/06 04:21:17;;;;;;;113.30;74.30;;;;;;;-1.91;66.40;102662.21;110716;1259;23020;-82
2023/02/06 04:24:42;;;;;;;;;;;;;;;;;;;;;
2023/02/06 04:28:33;;;;;;;105.20;70.70;;;;;;;-1.90;66.41;102662.11;110580;1259;21965;-82
2023/02/06 04:31:29;;;;;;;98.80;69.70;;;;;;;-1.89;66.36;102659.73;110794;1249;23077;-81
2023/02/06 04:34:50;;;;;;;105.40;73.10;;;;;;;-1.89;66.31;102657.69;110506;1259;21970;-80
2023/02/06 04:37:56;;;;;;;104.30;74.30;;;;;;;-1.92;66.03;102653.65;110524;1257;21968;-82
2023/02/06 04:41:08;;;;;;;95.80;69.80;;;;;;;-2.01;65.90;102650.33;110702;1259;21962;-82
2023/02/06 04:44:05;;;;;;;110.70;74.60;;;;;;;-2.07;66.22;102655.62;111159;1254;21974;-83
2023/02/06 04:46:59;;;;;;;109.90;77.10;;;;;;;-2.06;66.42;102656.18;111000;1254;22246;-84
2023/02/06 04:49:43;;;;;;;104.10;73.00;;;;;;;-2.04;66.32;102660.05;111174;1254;23057;-83
2023/02/06 04:53:21;;;;;;;108.20;77.00;;;;;;;-2.07;66.29;102661.79;110778;1254;23068;-84
2023/02/06 04:56:30;;;;;;;107.80;75.90;;;;;;;-2.04;66.40;102660.21;110977;1259;21947;-85
2023/02/06 04:59:19;;;;;;;102.20;70.10;;;;;;;-2.00;66.41;102658.88;110455;1265;23164;-84
2023/02/06 05:02:25;;;;;;;100.20;70.80;;;;;;;-1.95;66.35;102664.09;110334;1265;23593;-83
2023/02/06 05:05:03;;;;;;;103.00;73.10;;;;;;;-1.90;66.36;102668.62;110186;1265;21979;-85
2023/02/06 05:07:44;;;;;;;112.50;75.40;;;;;;;-1.84;66.37;102666.69;110161;1260;22228;-83
2023/02/06 05:10:53;;;;;;;113.30;80.00;;;;;;;-1.84;66.14;102662.27;110350;1265;21972;-84
2023/02/06 05:14:04;;;;;;;105.90;74.40;;;;;;;-1.86;65.88;102662.66;109935;1261;21976;-85
2023/02/06 05:17:05;;;;;;;127.30;80.30;;;;;;;-1.89;66.09;102657.17;110482;1261;23121;-83
2023/02/06 05:20:08;;;;;;;120.10;81.60;;;;;;;-1.94;65.98;102655.11;110368;1264;23054;-82
2023/02/06 05:23:46;;;;;;;105.70;75.50;;;;;;;-2.00;66.10;102658.73;110070;1264;21968;-82
2023/02/06 05:27:25;;;;;;;108.10;74.10;;;;;;;-2.01;66.21;102663.08;109322;1273;24463;-84
2023/02/06 05:30:33;;;;;;;;;;;;;;;;;;;;;
2023/02/06 05:33:30;;;;;;;103.80;75.60;;;;;;;-2.01;66.15;102656.95;108918;1276;23075;-81
2023/02/06 05:36:39;;;;;;;99.80;67.80;;;;;;;-1.97;66.24;102659.88;109154;1271;21980;-84
2023/02/06 05:39:45;;;;;;;101.30;68.80;;;;;;;-1.96;66.15;102663.71;109833;1270;21978;-82
2023/02/06 05:42:41;;;;;;;101.00;69.10;;;;;;;-1.93;66.20;102666.23;109593;1270;22253;-82
2023/02/06 05:45:45;;;;;;;;;;;;;;;;;;;;;
2023/02/06 05:48:48;;;;;;;99.60;68.20;;;;;;;-1.89;66.31;102676.00;109262;1274;22998;-81
2023/02/06 05:52:10;;;;;;;;;;;;;;;;;;;;;
2023/02/06 05:55:28;;;;;;;102.00;70.30;;;;;;;-1.92;66.24;102677.56;109342;1274;21997;-81
2023/02/06 05:58:29;;;;;;;103.30;71.10;;;;;;;-1.96;66.17;102678.20;109756;1268;22332;-81
2023/02/06 06:02:18;;;;;;;103.10;69.10;;;;;;;-1.97;66.29;102677.64;109630;1268;21974;-80
2023/02/06 06:05:36;;;;;;;91.70;64.40;;;;;;;-2.00;66.28;102678.84;110750;1260;22726;-80
2023/02/06 06:08:45;;;;;;;102.20;69.60;;;;;;;-2.02;66.26;102683.19;110621;1260;22712;-81
2023/02/06 06:11:51;;;;;;;100.40;67.70;;;;;;;-1.99;66.34;102683.67;110751;1259;24291;-83
2023/02/06 06:15:20;;;;;;;103.90;68.30;;;;;;;-1.97;66.37;102687.72;110741;1260;21959;-81
2023/02/06 06:17:59;;;;;;;102.30;70.10;;;;;;;-1.93;66.44;102689.58;110665;1260;22894;-80
2023/02/06 06:21:15;;;;;;;104.60;70.10;;;;;;;-1.91;66.42;102688.52;110957;1252;21957;-82
2023/02/06 06:24:41;;;;;;;103.50;70.80;;;;;;;-1.89;66.49;102687.09;111224;1255;22930;-82
2023/02/06 06:27:57;;;;;;;107.80;69.80;;;;;;;-1.87;66.48;102684.77;111130;1253;21959;-83
2023/02/06 06:30:57;;;;;;;110.40;72.90;;;;;;;-1.86;66.45;102688.59;111166;1255;21970;-82
2023/02/06 06:33:53;;;;;;;105.90;71.10;;;;;;;-1.87;66.40;102688.20;110962;1256;23581;-84
2023/02/06 06:37:06;;;;;;;104.60;71.80;;;;;;;-1.87;66.35;102690.25;110771;1256;22975;-82
2023/02/06 06:40:38;;;;;;;110.40;72.70;;;;;;;-1.92;66.41;102688.27;110950;1256;21991;-85
2023/02/06 06:44:09;;;;;;;103.10;69.70;;;;;;;-1.97;66.67;102686.18;111069;1251;23029;-84
2023/02/06 06:48:15;;;;;;;;;;;;;;;;;;;;;
2023/02/06 06:52:25;;;;;;;89.80;61.90;;;;;;;-2.05;66.78;102688.52;110707;1260;23698;-84
2023/02/06 06:55:48;;;;;;;91.80;61.10;;;;;;;-2.07;66.86;102696.42;109773;1270;22892;-83
2023/02/06 06:59:44;;;;;;;92.30;61.30;;;;;;;-2.05;66.94;102692.58;109109;1275;21989;-85
2023/02/06 07:03:10;;;;;;;97.60;63.60;;;;;;;-2.02;66.95;102692.39;108239;1290;22004;-83
2023/02/06 07:06:29;;;;;;;100.40;67.20;;;;;;;-1.98;66.96;102696.21;108141;1289;22664;-81
2023/02/06 07:09:18;;;;;;;103.80;67.40;;;;;;;-1.93;66.87;102698.98;107886;1288;23675;-81
2023/02/06 07:12:15;;;;;;;104.30;71.10;;;;;;;-1.90;66.87;102704.95;108120;1288;22019;-81
2023/02/06 07:14:53;;;;;;;110.60;75.80;;;;;;;-1.83;67.09;102703.77;108528;1276;23103;-81
2023/02/06 07:17:38;;;;;;;116.10;78.00;;;;;;;-1.77;66.90;102706.45;108814;1276;21975;-82
2023/02/06 07:20:50;;;;;;;120.30;84.00;;;;;;;-1.74;67.06;102707.65;108907;1276;22000;-80
2023/02/06 07:23:31;;;;;;;106.90;71.40;;;;;;;-1.69;67.17;102707.55;108445;1281;21995;-81
2023/02/06 07:26:45;;;;;;;;;;;;;;;;;;;;;
2023/02/06 07:29:36;;;;;;;136.50;111.20;;;;;;;-1.62;67.31;102709.41;108545;1283;22005;-83
2023/02/06 07:32:36;;;;;;;127.20;95.40;;;;;;;-1.56;67.35;102712.63;108756;1274;22025;-81
2023/02/06 07:36:00;;;;;;;98.60;69.30;;;;;;;-1.45;67.42;102713.54;108763;1279;23833;-83
2023/02/06 07:39:13;;;;;;;98.00;65.00;;;;;;;-1.32;67.39;102714.46;108217;1284;22024;-81
2023/02/06 07:42:10;;;;;;;91.50;64.70;;;;;;;-1.23;67.24;102715.98;108556;1284;23055;-82
2023/02/06 07:45:45;;;;;;;91.50;65.50;;;;;;;-1.09;67.31;102715.41;108564;1284;21997;-84
2023/02/06 07:48:44;;;;;;;95.70;65.60;;;;;;;-0.96;67.21;102715.87;108315;1286;22002;-81
2023/02/06 07:51:57;;;;;;;92.00;66.70;;;;;;;-0.87;66.97;102718.89;107939;1290;23009;-83
2023/02/06 07:55:15;;;;;;;96.10;64.10;;;;;;;-0.77;66.99;102722.90;107921;1290;22002;-79
2023/02/06 07:58:03;;;;;;;101.70;71.40;;;;;;;-0.72;66.74;102726.75;108180;1286;23840;-80
2023/02/06 08:01:29;;;;;;;94.10;67.60;;;;;;;-0.73;66.47;102726.70;108334;1286;21995;-79
2023/02/06 08:04:28;;;;;;;94.20;67.50;;;;;;;-0.68;66.67;102721.13;108395;1286;22111;-82
2023/02/06 08:07:36;;;;;;;85.70;58.60;;;;;;;-0.63;66.60;102715.19;108553;1282;21998;-81
2023/02/06 08:10:52;;;;;;;77.20;55.30;;;;;;;-0.60;66.43;102716.86;108225;1287;23062;-82
2023/02/06 08:13:53;;;;;;;69.40;52.10;;;;;;;-0.56;66.16;102711.73;108268;1288;22012;-82
2023/02/06 08:16:52;;;;;;;76.80;52.80;;;;;;;-0.49;66.34;102717.88;108812;1269;22013;-82
2023/02/06 08:19:54;;;;;;;72.70;53.90;;;;;;;-0.41;66.00;102726.28;108873;1277;23642;-82
2023/02/06 08:23:13;;;;;;;76.10;51.90;;;;;;;-0.34;65.77;102728.13;108817;1277;23644;-83
2023/02/06 08:26:25;;;;;;;65.60;46.70;;;;;;;-0.28;65.65;102727.86;109580;1268;23731;-85
2023/02/06 08:29:23;;;;;;;58.50;44.10;;;;;;;-0.24;65.48;102724.45;110285;1263;23722;-83
2023/02/06 08:32:27;;;;;;;63.30;46.50;;;;;;;-0.23;65.15;102720.08;110272;1262;21984;-83
2023/02/06 08:35:47;;;;;;;;;;;;;;;;;;;;;
2023/02/06 08:39:24;;;;;;;69.90;49.70;;;;;;;-0.26;64.70;102722.15;110688;1261;22243;-82
2023/02/06 08:42:49;;;;;;;60.30;45.30;;;;;;;-0.23;64.73;102726.04;110510;1261;22021;-84
2023/02/06 08:46:10;;;;;;;60.50;44.20;;;;;;;-0.18;64.65;102729.37;109503;1272;23038;-82
2023/02/06 08:49:38;;;;;;;;;;;;;;;;;;;;;
2023/02/06 08:53:39;;;;;;;63.80;46.20;;;;;;;-0.01;64.55;102737.63;108944;1276;23171;-82
2023/02/06 08:57:08;;;;;;;60.50;46.70;;;;;;;0.02;64.22;102738.42;108490;1284;22005;-82
2023/02/06 09:00:15;;;;;;;66.40;48.10;;;;;;;0.04;64.05;102733.36;107905;1288;22008;-79
2023/02/06 09:03:34;;;;;;;;;;;;;;;;;;;;;
2023/02/06 09:06:18;;;;;;;55.40;40.00;;;;;;;0.07;63.90;102736.60;107378;1298;23830;-82
2023/02/06 09:09:02;;;;;;;50.30;40.60;;;;;;;0.12;63.69;102734.44;107167;1299;21992;-79
2023/02/06 09:12:00;;;;;;;63.80;42.30;;;;;;;0.15;63.73;102738.18;107044;1298;22013;-79
2023/02/06 09:14:45;;;;;;;55.40;38.50;;;;;;;0.16;63.46;102735.99;106850;1298;22018;-81
2023/02/06 09:17:45;;;;;;;51.70;39.20;;;;;;;0.13;63.23;102737.73;107127;1298;22020;-81
2023/02/06 09:20:52;;;;;;;;;;;;;;;;;;;;;
2023/02/06 09:24:00;;;;;;;62.60;47.00;;;;;;;0.14;63.06;102739.81;107505;1286;23644;-83
2023/02/06 09:28:16;;;;;;;56.00;41.80;;;;;;;0.15;63.16;102732.88;108342;1286;22273;-80
2023/02/06 09:31:15;;;;;;;58.80;39.90;;;;;;;0.19;63.01;102728.59;108586;1283;22840;-81
2023/02/06 09:34:44;;;;;;;57.50;42.10;;;;;;;0.26;63.02;102727.01;108966;1278;23754;-80
2023/02/06 09:37:35;;;;;;;58.40;42.70;;;;;;;0.35;62.80;102726.67;109163;1271;22006;-81
2023/02/06 09:40:38;;;;;;;59.30;43.30;;;;;;;0.44;62.85;102728.61;109618;1271;24322;-80
2023/02/06 09:43:34;;;;;;;;;;;;;;;;;;;;;
2023/02/06 09:46:53;;;;;;;57.60;43.90;;;;;;;0.61;62.27;102729.33;109491;1270;23605;-81
2023/02/06 09:50:07;;;;;;;;;;;;;;;;;;;;;
2023/02/06 09:53:20;;;;;;;58.30;43.00;;;;;;;0.84;62.43;102736.75;109632;1270;23733;-78
2023/02/06 09:56:49;;;;;;;56.80;42.20;;;;;;;1.02;62.13;102738.33;109593;1262;23722;-79
2023/02/06 09:59:49;;;;;;;53.60;40.90;;;;;;;1.20;61.86;102736.30;108610;1282;22019;-82
2023/02/06 10:03:00;;;;;;;54.50;39.80;;;;;;;1.37;61.49;102738.83;108318;1281;21988;-79
2023/02/06 10:06:34;;;;;;;51.20;38.00;;;;;;;1.53;61.44;102741.48;108392;1279;24471;-80
2023/02/06 10:09:50;;;;;;;;;;;;;;;;;;;;;
2023/02/06 10:13:48;;;;;;;45.40;32.80;;;;;;;1.84;60.69;102745.89;108592;1283;22172;-81
2023/02/06 10:17:07;;;;;;;54.10;32.70;;;;;;;2.06;60.26;102742.39;108409;1280;22006;-80
2023/02/06 10:20:27;;;;;;;40.40;31.40;;;;;;;2.24;59.87;102742.33;108309;1287;23625;-79
2023/02/06 10:24:56;;;;;;;43.20;30.40;;;;;;;2.59;59.00;102747.98;107881;1294;544735;-81
2023/02/06 10:27:42;;;;;;;44.10;30.60;;;;;;;2.75;58.52;102745.42;109067;1277;21990;-80
2023/02/06 10:30:47;;;;;;;47.80;35.00;;;;;;;2.89;57.80;102746.05;108937;1275;22007;-83
2023/02/06 10:34:16;;;;;;;46.10;34.60;;;;;;;3.06;57.70;102743.98;109698;1270;21950;-84
2023/02/06 10:39:35;;;;;;;58.10;41.20;;;;;;;3.12;56.62;102745.23;104394;1275;22964;-81
2023/02/06 10:43:25;;;;;;;35.00;25.90;;;;;;;3.23;56.46;102742.30;109124;1276;23107;-81
2023/02/06 10:47:04;;;;;;;30.70;24.30;;;;;;;3.62;56.43;102739.85;108752;1277;23113;-80
2023/02/06 10:50:54;;;;;;;;;;;;;;;;;;;;;
2023/02/06 10:59:03;;;;;;;39.30;27.30;;;;;;;5.45;53.12;102723.38;109018;1277;21994;-79
2023/02/06 11:07:04;;;;;;;29.90;25.30;;;;;;;6.21;49.34;102723.88;107118;1299;22032;-80
2023/02/06 11:09:50;;;;;;;29.30;24.30;;;;;;;6.10;49.92;102723.50;107147;1299;21973;-78
2023/02/06 11:12:50;;;;;;;40.50;25.20;;;;;;;6.00;49.12;102718.31;107162;1296;24351;-80
2023/02/06 11:15:45;;;;;;;44.50;31.20;;;;;;;5.49;48.62;102720.01;107259;1296;23622;-79
2023/02/06 11:18:44;;;;;;;36.10;31.60;;;;;;;5.50;50.88;102720.91;107648;1293;22295;-79
2023/02/06 11:21:49;;;;;;;38.70;31.30;;;;;;;6.23;50.71;102722.18;107331;1296;22019;-78
2023/02/06 11:24:27;;;;;;;31.30;26.20;;;;;;;6.34;48.79;102726.21;107245;1296;22792;-79
2023/02/06 11:27:36;;;;;;;27.90;22.60;;;;;;;5.86;47.46;102724.94;107344;1296;23067;-81
2023/02/06 11:34:01;;;;;;;33.10;23.60;;;;;;;5.11;47.66;102720.40;107761;1290;22106;-85
2023/02/06 11:37:14;;;;;;;28.20;22.00;;;;;;;4.82;48.17;102719.91;108397;1284;23775;-78
2023/02/06 11:40:29;;;;;;;37.20;26.00;;;;;;;4.45;48.49;102721.27;108730;1279;23843;-79
2023/02/06 11:43:46;;;;;;;33.40;24.40;;;;;;;4.16;48.58;102719.81;109900;1267;23640;-79
2023/02/06 11:47:01;;;;;;;36.70;27.50;;;;;;;3.97;49.04;102716.71;110121;1267;23679;-80
2023/02/06 11:49:50;;;;;;;41.00;29.30;;;;;;;3.72;48.83;102720.69;109473;1273;22007;-78
2023/02/06 11:52:39;;;;;;;39.00;29.00;;;;;;;3.45;48.94;102716.63;109294;1272;22024;-80
2023/02/06 11:55:33;;;;;;;42.50;28.10;;;;;;;3.17;48.99;102714.41;109270;1270;23030;-81
2023/02/06 11:58:35;;;;;;;42.50;29.00;;;;;;;2.91;49.21;102705.86;109611;1273;22747;-80
2023/02/06 12:01:27;;;;;;;39.40;30.00;;;;;;;2.66;49.58;102700.79;109273;1273;22974;-79
2023/02/06 12:04:39;;;;;;;35.30;26.60;;;;;;;2.36;49.83;102699.45;109335;1273;23763;-81
2023/02/06 12:07:41;;;;;;;33.60;24.60;;;;;;;2.08;50.32;102697.10;109154;1271;23038;-80
2023/02/06 12:11:00;;;;;;;35.80;27.40;;;;;;;1.85;50.68;102702.83;109145;1272;23033;-79
2023/02/06 12:14:19;;;;;;;37.60;26.30;;;;;;;1.65;51.33;102700.91;109241;1272;23617;-80
2023/02/06 12:17:40;;;;;;;29.90;23.90;;;;;;;1.55;51.68;102704.31;109027;1278;24420;-82
2023/02/06 12:21:02;;;;;;;;;;;;;;;;;;;;;
2023/02/06 12:24:51;;;;;;;33.80;22.90;;;;;;;1.30;52.17;102698.40;108696;1283;22787;-82
2023/02/06 12:27:54;;;;;;;29.20;23.10;;;;;;;1.17;52.47;102692.09;108591;1281;22020;-82
2023/02/06 12:31:18;;;;;;;36.10;25.30;;;;;;;1.10;52.65;102693.52;108647;1281;21972;-82
2023/02/06 12:34:23;;;;;;;36.60;27.60;;;;;;;1.05;52.93;102697.64;108658;1282;22011;-80
2023/02/06 12:37:42;;;;;;;42.20;28.80;;;;;;;0.89;53.01;102695.30;108604;1282;22008;-82
2023/02/06 12:40:44;;;;;;;39.90;30.40;;;;;;;0.74;53.17;102694.53;108621;1281;22013;-81
2023/02/06 12:43:38;;;;;;;41.30;30.20;;;;;;;0.72;53.76;102692.73;108856;1277;22127;-81
2023/02/06 12:46:27;;;;;;;36.90;27.90;;;;;;;0.75;53.88;102684.98;108534;1282;22929;-81
2023/02/06 12:50:24;;;;;;;30.00;24.40;;;;;;;0.79;54.16;102683.40;108707;1281;21991;-80
2023/02/06 12:53:25;;;;;;;37.00;27.60;;;;;;;0.78;54.09;102683.73;108370;1279;23082;-83
2023/02/06 12:56:42;;;;;;;37.70;26.80;;;;;;;0.70;53.95;102684.58;108677;1279;23064;-81
2023/02/06 13:00:28;;;;;;;31.90;22.90;;;;;;;0.58;54.21;102689.08;108670;1283;23822;-79
2023/02/06 13:07:28;;;;;;;35.30;24.30;;;;;;;0.69;54.31;102695.18;108140;1284;548917;-81
2023/02/06 13:10:25;;;;;;;34.00;23.00;;;;;;;0.70;54.49;102704.84;109893;1269;21974;-79
2023/02/06 13:13:28;;;;;;;33.80;23.60;;;;;;;0.76;54.52;102703.71;109869;1269;22011;-79
2023/02/06 13:16:18;;;;;;;29.00;21.90;;;;;;;0.85;54.77;102699.58;111142;1256;21965;-79
2023/02/06 16:14:58;;;;;;;60.60;39.80;;;;;;;-0.11;54.59;102796.05;108916;1282;23130;-83
2023/02/06 16:17:39;;;;;;;34.90;26.00;;;;;;;-0.19;54.71;102803.23;109792;1267;22254;-84
2023/02/06 16:20:38;;;;;;;51.90;35.10;;;;;;;-0.22;54.77;102803.98;110995;1259;22162;-81
2023/02/06 16:23:26;;;;;;;40.30;28.00;;;;;;;-0.24;54.88;102804.08;111110;1259;21977;-82
2023/02/06 16:26:11;;;;;;;63.80;35.40;;;;;;;-0.24;54.95;102807.80;111096;1259;21771;-82
2023/02/06 16:29:03;;;;;;;51.60;31.80;;;;;;;-0.25;55.02;102808.10;110959;1260;22436;-83
2023/02/06 16:31:37;;;;;;;41.80;31.10;;;;;;;-0.27;55.04;102813.16;110886;1260;22006;-82
2023/02/06 16:34:30;;;;;;;56.60;49.20;;;;;;;-0.30;55.16;102815.42;110889;1260;21964;-83
2023/02/06 16:36:58;;;;;;;46.40;33.70;;;;;;;-0.34;55.16;102820.14;110856;1257;22606;-82
2023/02/06 16:39:26;;;;;;;47.50;33.80;;;;;;;-0.38;55.28;102826.83;110894;1258;23743;-84
2023/02/06 16:41:54;;;;;;;43.60;31.80;;;;;;;-0.40;55.30;102831.17;110816;1258;21967;-83
2023/02/06 16:44:23;;;;;;;42.40;30.20;;;;;;;-0.41;55.38;102834.77;110603;1258;23696;-83
2023/02/06 16:47:11;;;;;;;67.00;43.50;;;;;;;-0.41;55.49;102836.14;110459;1264;21983;-82
2023/02/06 16:49:40;;;;;;;65.50;47.00;;;;;;;-0.37;55.61;102836.11;109602;1270;21979;-84
2023/02/06 16:52:17;;;;;;;72.80;48.20;;;;;;;-0.34;55.68;102834.54;109555;1267;22740;-83
2023/02/06 16:54:46;;;;;;;75.20;44.00;;;;;;;-0.33;55.67;102830.81;109304;1270;21983;-85
2023/02/06 16:57:32;;;;;;;80.20;46.80;;;;;;;-0.34;55.69;102822.73;109506;1271;21991;-82
2023/02/06 17:00:02;;;;;;;77.50;45.70;;;;;;;-0.38;55.74;102814.86;109634;1269;22958;-84
2023/02/06 17:02:30;;;;;;;82.00;53.40;;;;;;;-0.43;55.80;102805.92;109528;1270;23122;-83
2023/02/06 17:04:58;;;;;;;193.50;120.50;;;;;;;-0.47;55.91;102808.63;109291;1271;21954;-83
2023/02/06 17:07:30;;;;;;;160.50;99.20;;;;;;;-0.52;56.00;102816.63;109800;1265;21972;-83
2023/02/06 17:09:58;;;;;;;151.70;101.10;;;;;;;-0.56;56.10;102826.16;109635;1271;23659;-81
2023/02/06 17:12:27;;;;;;;117.10;76.90;;;;;;;-0.59;56.18;102836.09;109524;1271;22443;-83
2023/02/06 17:14:55;;;;;;;105.80;69.60;;;;;;;-0.64;56.24;102836.75;109715;1272;22671;-85
2023/02/06 17:17:26;;;;;;;75.30;53.30;;;;;;;-0.69;56.28;102836.14;109583;1272;21974;-82
2023/02/06 17:19:55;;;;;;;69.40;47.30;;;;;;;-0.75;56.31;102842.85;109507;1272;22048;-83
2023/02/06 17:22:23;;;;;;;73.30;48.10;;;;;;;-0.82;56.48;102845.11;109564;1266;24301;-84
2023/02/06 17:24:51;;;;;;;95.90;63.20;;;;;;;-0.88;56.58;102842.44;109815;1261;21985;-83
2023/02/06 17:27:24;;;;;;;109.20;70.60;;;;;;;-0.93;56.68;102842.68;110351;1266;22135;-84
2023/02/06 17:30:31;;;;;;;109.90;73.50;;;;;;;-1.01;56.87;102848.10;109459;1271;21985;-83
2023/02/06 17:32:59;;;;;;;116.30;80.60;;;;;;;-1.05;57.10;102852.01;109255;1273;22089;-83
2023/02/06 17:35:28;;;;;;;117.20;77.50;;;;;;;-1.08;57.22;102855.09;109826;1267;23804;-83
2023/02/06 17:37:59;;;;;;;174.60;104.90;;;;;;;-1.12;57.36;102855.91;109848;1264;23039;-83
2023/02/06 17:40:38;;;;;;;223.80;132.90;;;;;;;-1.16;57.62;102864.62;109523;1271;21983;-85
2023/02/06 17:43:49;;;;;;;;;;;;;;;;;;;;;
2023/02/06 17:46:59;;;;;;;262.20;150.20;;;;;;;-1.26;58.11;102877.60;109856;1273;21983;-85
2023/02/06 17:49:33;;;;;;;259.80;151.00;;;;;;;-1.28;58.30;102872.00;109581;1273;22445;-83
2023/02/06 17:52:02;;;;;;;259.40;154.70;;;;;;;-1.31;58.49;102868.98;109481;1272;22103;-83
2023/02/06 17:54:34;;;;;;;255.90;147.20;;;;;;;-1.33;58.60;102872.30;109513;1272;23603;-84
2023/02/06 17:57:08;;;;;;;248.00;146.30;;;;;;;-1.35;58.76;102870.80;109967;1271;22000;-84
2023/02/06 18:00:22;;;;;;;232.90;134.40;;;;;;;-1.39;58.91;102863.13;109058;1278;22080;-85
2023/02/06 18:03:06;;;;;;;220.50;125.10;;;;;;;-1.45;59.00;102865.34;109699;1268;23058;-83
2023/02/06 18:06:00;;;;;;;244.40;136.80;;;;;;;-1.48;59.10;102865.02;109581;1270;24312;-84